createdAt,value
2023-03-16T00:04:12.776Z,3.00
2023-03-16T00:07:05.475Z,3.67
2023-03-16T00:13:02.384Z,2.03
2023-03-16T00:15:35.593Z,2.17
2023-03-16T00:18:05.380Z,2.13
2023-03-16T00:20:35.615Z,2.20
2023-03-16T00:23:05.812Z,2.30
2023-03-16T00:25:36.086Z,2.30
2023-03-16T00:28:05.812Z,2.43
2023-03-16T00:30:38.147Z,2.50
2023-03-16T00:33:08.050Z,2.10
2023-03-16T00:35:38.040Z,2.53
2023-03-16T00:38:07.861Z,2.70
2023-03-16T00:40:37.589Z,2.43
2023-03-16T00:43:10.429Z,2.60
2023-03-16T00:45:45.163Z,2.20
2023-03-16T00:48:14.990Z,2.23
2023-03-16T00:50:45.272Z,2.50
2023-03-16T00:53:15.029Z,2.60
2023-03-16T00:55:44.777Z,2.23
2023-03-16T00:58:15.101Z,2.57
2023-03-16T01:00:48.777Z,2.10
2023-03-16T01:03:18.614Z,2.67
2023-03-16T01:05:49.009Z,2.40
2023-03-16T01:08:18.845Z,2.87
2023-03-16T01:10:48.619Z,2.40
2023-03-16T01:13:18.347Z,2.73
2023-03-16T01:15:53.932Z,2.47
2023-03-16T01:18:23.682Z,2.80
2023-03-16T01:20:53.631Z,2.80
2023-03-16T01:23:24.149Z,2.33
2023-03-16T01:25:55.717Z,2.10
2023-03-16T01:28:28.366Z,2.83
2023-03-16T01:31:03.579Z,2.17
2023-03-16T01:33:33.777Z,2.53
2023-03-16T01:36:06.322Z,3.00
2023-03-16T01:38:36.468Z,3.10
2023-03-16T01:41:13.210Z,2.60
2023-03-16T01:43:44.770Z,2.50
2023-03-16T01:46:26.140Z,2.57
2023-03-16T01:49:05.734Z,2.50
2023-03-16T01:51:42.227Z,2.70
2023-03-16T01:54:17.975Z,2.47
2023-03-16T01:56:55.484Z,2.40
2023-03-16T01:59:29.340Z,2.87
2023-03-16T02:02:04.963Z,2.50
2023-03-16T02:04:48.449Z,2.90
2023-03-16T02:07:20.798Z,2.70
2023-03-16T02:09:54.818Z,2.70
2023-03-16T02:12:24.741Z,3.70
2023-03-16T02:14:55.238Z,2.83
2023-03-16T02:17:31.103Z,3.10
2023-03-16T02:20:14.621Z,2.87
2023-03-16T02:22:49.364Z,2.73
2023-03-16T02:25:21.612Z,2.90
2023-03-16T02:28:03.458Z,2.77
2023-03-16T02:30:35.968Z,3.07
2023-03-16T02:33:06.686Z,2.90
2023-03-16T02:35:37.110Z,2.73
2023-03-16T02:38:06.884Z,3.10
2023-03-16T02:40:38.868Z,3.30
2023-03-16T02:43:13.978Z,3.20
2023-03-16T02:45:49.534Z,3.57
2023-03-16T02:48:24.664Z,3.70
2023-03-16T02:50:56.557Z,3.50
2023-03-16T02:53:26.600Z,3.00
2023-03-16T02:55:56.364Z,3.60
2023-03-16T02:58:26.077Z,3.53
2023-03-16T03:00:59.809Z,3.87
2023-03-16T03:03:29.612Z,3.27
2023-03-16T03:05:59.458Z,3.50
2023-03-16T03:08:29.200Z,3.67
2023-03-16T03:10:59.132Z,3.80
2023-03-16T03:13:28.856Z,3.80
2023-03-16T03:16:03.408Z,3.57
2023-03-16T03:18:34.833Z,3.20
2023-03-16T03:21:04.846Z,3.30
2023-03-16T03:23:35.096Z,3.57
2023-03-16T03:26:08.136Z,4.13
2023-03-16T03:28:37.904Z,4.17
2023-03-16T03:31:10.730Z,4.13
2023-03-16T03:33:40.706Z,3.73
2023-03-16T03:36:11.433Z,4.17
2023-03-16T03:38:41.430Z,4.67
2023-03-16T03:41:11.311Z,4.10
2023-03-16T03:43:41.160Z,4.00
2023-03-16T03:46:13.665Z,5.00
2023-03-16T03:48:43.498Z,4.90
2023-03-16T03:51:13.253Z,4.80
2023-03-16T03:53:43.008Z,4.80
2023-03-16T03:56:12.853Z,4.70
2023-03-16T03:58:42.581Z,4.43
2023-03-16T04:01:17.937Z,4.87
2023-03-16T04:03:47.751Z,4.53
2023-03-16T04:06:17.555Z,5.07
2023-03-16T04:08:47.394Z,5.37
2023-03-16T04:11:17.144Z,5.20
2023-03-16T04:13:46.882Z,4.20
2023-03-16T04:16:19.292Z,4.33
2023-03-16T04:18:49.163Z,4.87
2023-03-16T04:21:20.499Z,5.17
2023-03-16T04:23:54.400Z,4.50
2023-03-16T04:26:25.739Z,4.80
2023-03-16T04:28:55.578Z,4.37
2023-03-16T04:31:27.996Z,4.37
2023-03-16T04:33:57.723Z,4.53
2023-03-16T04:36:27.530Z,4.93
2023-03-16T04:38:57.277Z,4.37
2023-03-16T04:41:29.156Z,4.23
2023-03-16T04:43:59.201Z,5.13
2023-03-16T04:46:31.597Z,4.80
2023-03-16T04:49:01.639Z,3.97
2023-03-16T04:51:31.842Z,4.40
2023-03-16T04:54:01.668Z,4.43
2023-03-16T04:56:31.398Z,4.40
2023-03-16T04:59:01.378Z,4.70
2023-03-16T05:01:33.744Z,4.47
2023-03-16T05:04:03.502Z,4.23
2023-03-16T05:06:36.281Z,4.77
2023-03-16T05:09:08.557Z,4.37
2023-03-16T05:11:38.523Z,3.80
2023-03-16T05:14:08.381Z,4.47
2023-03-16T05:16:42.114Z,5.10
2023-03-16T05:19:12.626Z,4.00
2023-03-16T05:21:42.351Z,3.60
2023-03-16T05:24:13.040Z,4.13
2023-03-16T05:26:42.841Z,3.80
2023-03-16T05:29:12.601Z,4.40
2023-03-16T05:31:46.849Z,4.47
2023-03-16T05:34:16.691Z,4.53
2023-03-16T05:36:46.664Z,4.23
2023-03-16T05:39:16.417Z,4.33
2023-03-16T05:41:47.397Z,4.00
2023-03-16T05:44:17.137Z,3.87
2023-03-16T05:46:49.565Z,6.17
2023-03-16T05:49:19.549Z,4.80
2023-03-16T05:51:49.993Z,4.40
2023-03-16T05:54:19.868Z,4.00
2023-03-16T05:56:50.008Z,4.23
2023-03-16T05:59:21.563Z,4.63
2023-03-16T06:01:54.179Z,5.43
2023-03-16T06:04:24.223Z,4.60
2023-03-16T06:06:53.996Z,4.50
2023-03-16T06:09:26.791Z,4.33
2023-03-16T06:11:56.541Z,4.30
2023-03-16T06:14:26.325Z,4.63
2023-03-16T06:16:58.712Z,4.80
2023-03-16T06:19:28.454Z,4.20
2023-03-16T06:21:58.239Z,4.70
2023-03-16T06:24:27.980Z,4.47
2023-03-16T06:26:57.785Z,4.87
2023-03-16T06:29:27.523Z,4.73
2023-03-16T06:32:00.210Z,4.63
2023-03-16T06:34:29.997Z,4.97
2023-03-16T06:37:02.616Z,4.30
2023-03-16T06:39:32.918Z,5.00
2023-03-16T06:42:06.937Z,4.63
2023-03-16T06:44:37.574Z,4.87
2023-03-16T06:47:10.574Z,4.33
2023-03-16T06:49:40.383Z,4.37
2023-03-16T06:52:10.692Z,4.70
2023-03-16T06:54:40.510Z,5.07
2023-03-16T06:57:10.306Z,5.30
2023-03-16T06:59:40.043Z,5.03
2023-03-16T07:02:14.530Z,4.53
2023-03-16T07:04:44.636Z,4.27
2023-03-16T07:07:14.817Z,4.90
2023-03-16T07:09:44.930Z,4.87
2023-03-16T07:12:15.081Z,4.80
2023-03-16T07:14:44.856Z,4.43
2023-03-16T07:17:17.208Z,4.70
2023-03-16T07:19:49.987Z,4.40
2023-03-16T07:22:19.719Z,5.10
2023-03-16T07:24:52.193Z,4.23
2023-03-16T07:27:23.441Z,4.67
2023-03-16T07:29:55.015Z,5.30
2023-03-16T07:32:30.168Z,5.13
2023-03-16T07:35:00.268Z,4.70
2023-03-16T07:37:30.074Z,5.03
2023-03-16T07:39:59.947Z,4.27
2023-03-16T07:42:29.795Z,4.20
2023-03-16T07:44:59.565Z,4.50
2023-03-16T07:47:33.761Z,4.57
2023-03-16T07:50:04.086Z,4.90
2023-03-16T07:52:37.110Z,5.10
2023-03-16T07:55:09.833Z,5.17
2023-03-16T07:57:40.000Z,4.80
2023-03-16T08:00:11.377Z,5.10
2023-03-16T08:02:44.176Z,4.80
2023-03-16T08:05:15.562Z,4.10
2023-03-16T08:07:45.370Z,5.17
2023-03-16T08:10:15.439Z,4.97
2023-03-16T08:12:45.210Z,4.90
2023-03-16T08:15:15.688Z,4.80
2023-03-16T08:17:49.833Z,4.00
2023-03-16T08:20:19.848Z,4.43
2023-03-16T08:22:49.898Z,4.60
2023-03-16T08:25:20.254Z,4.40
2023-03-16T08:27:51.396Z,4.23
2023-03-16T08:30:22.773Z,4.77
2023-03-16T08:32:55.165Z,5.10
2023-03-16T08:35:24.916Z,4.07
2023-03-16T08:37:55.701Z,4.90
2023-03-16T08:40:29.391Z,5.53
2023-03-16T08:43:01.821Z,4.87
2023-03-16T08:45:31.634Z,4.10
2023-03-16T08:48:05.139Z,4.70
2023-03-16T08:50:34.889Z,4.70
2023-03-16T08:53:04.576Z,5.33
2023-03-16T08:55:34.301Z,4.00
2023-03-16T08:58:04.497Z,4.37
2023-03-16T09:00:34.332Z,4.33
2023-03-16T09:03:06.915Z,4.43
2023-03-16T09:05:37.007Z,4.33
2023-03-16T09:08:06.914Z,4.70
2023-03-16T09:10:38.191Z,4.07
2023-03-16T09:13:08.734Z,4.83
2023-03-16T09:15:39.079Z,4.17
2023-03-16T09:18:11.794Z,4.87
2023-03-16T09:20:41.597Z,4.10
2023-03-16T09:23:11.825Z,4.20
2023-03-16T09:25:41.540Z,4.40
2023-03-16T09:28:11.439Z,4.43
2023-03-16T09:30:41.209Z,4.80
2023-03-16T09:33:13.797Z,4.67
2023-03-16T09:35:43.570Z,4.93
2023-03-16T09:38:16.439Z,4.70
2023-03-16T09:40:47.342Z,4.60
2023-03-16T09:43:49.861Z,4.73
2023-03-16T09:46:35.006Z,4.27
2023-03-16T09:49:08.637Z,4.33
2023-03-16T09:51:47.209Z,4.80
2023-03-16T09:54:26.667Z,4.83
2023-03-16T09:56:58.722Z,4.50
2023-03-16T09:59:28.703Z,4.80
2023-03-16T10:02:29.338Z,4.50
2023-03-16T10:05:10.682Z,4.60
2023-03-16T10:07:53.360Z,4.90
2023-03-16T10:10:42.082Z,4.50
2023-03-16T10:13:26.050Z,4.87
2023-03-16T10:15:58.663Z,4.50
2023-03-16T10:18:32.490Z,4.70
2023-03-16T10:21:06.162Z,4.40
2023-03-16T10:23:40.932Z,3.93
2023-03-16T10:26:16.962Z,4.70
2023-03-16T10:28:46.742Z,4.93
2023-03-16T10:31:24.738Z,4.70
2023-03-16T10:34:02.180Z,4.13
2023-03-16T10:36:38.236Z,5.00
2023-03-16T10:39:10.287Z,4.47
2023-03-16T10:41:41.796Z,4.17
2023-03-16T10:44:14.935Z,4.50
2023-03-16T10:46:48.495Z,4.20
2023-03-16T10:49:25.926Z,4.30
2023-03-16T10:52:00.427Z,4.43
2023-03-16T10:54:40.240Z,4.47
2023-03-16T10:57:18.705Z,4.53
2023-03-16T10:59:52.903Z,4.63
2023-03-16T11:02:26.518Z,4.40
2023-03-16T11:04:57.543Z,3.93
2023-03-16T11:07:30.098Z,4.40
2023-03-16T11:10:01.976Z,3.93
2023-03-16T11:12:35.051Z,4.13
2023-03-16T11:15:09.457Z,4.20
2023-03-16T11:17:49.870Z,4.10
2023-03-16T11:20:23.581Z,4.27
2023-03-16T11:22:56.386Z,4.60
2023-03-16T11:25:32.060Z,4.40
2023-03-16T11:28:13.742Z,4.13
2023-03-16T11:30:46.402Z,3.57
2023-03-16T11:33:17.346Z,3.97
2023-03-16T11:35:59.260Z,4.40
2023-03-16T11:38:38.474Z,4.10
2023-03-16T11:41:14.988Z,4.03
2023-03-16T11:43:53.665Z,4.20
2023-03-16T11:46:27.936Z,4.43
2023-03-16T11:49:14.568Z,3.77
2023-03-16T11:51:50.816Z,4.20
2023-03-16T11:54:38.776Z,4.00
2023-03-16T11:57:14.034Z,4.10
2023-03-16T12:00:01.700Z,4.20
2023-03-16T12:02:47.619Z,3.77
2023-03-16T12:05:35.582Z,4.00
2023-03-16T12:08:20.786Z,3.87
2023-03-16T12:11:00.446Z,4.17
2023-03-16T12:13:44.846Z,3.70
2023-03-16T12:16:22.431Z,3.77
2023-03-16T12:18:57.941Z,3.67
2023-03-16T12:21:34.461Z,3.30
2023-03-16T12:24:07.172Z,3.63
2023-03-16T12:26:43.447Z,4.13
2023-03-16T12:29:24.485Z,3.90
2023-03-16T12:32:03.419Z,3.53
2023-03-16T12:34:41.550Z,3.70
2023-03-16T12:37:25.484Z,3.70
2023-03-16T12:40:09.229Z,3.70
2023-03-16T12:42:55.398Z,3.30
2023-03-16T12:45:35.455Z,3.50
2023-03-16T12:48:17.098Z,3.57
2023-03-16T12:50:54.233Z,3.20
2023-03-16T12:53:31.929Z,3.50
2023-03-16T12:56:08.980Z,3.60
2023-03-16T12:58:45.721Z,3.70
2023-03-16T13:01:18.626Z,3.70
2023-03-16T13:03:52.370Z,3.60
2023-03-16T13:06:25.120Z,3.83
2023-03-16T13:09:01.194Z,3.53
2023-03-16T13:11:31.388Z,3.50
2023-03-16T13:14:18.275Z,3.30
2023-03-16T13:16:49.925Z,3.63
2023-03-16T13:19:27.429Z,3.70
2023-03-16T13:22:09.418Z,3.83
2023-03-16T13:24:42.804Z,3.97
2023-03-16T13:27:23.404Z,3.70
2023-03-16T13:30:05.424Z,3.57
2023-03-16T13:32:36.736Z,3.57
2023-03-16T13:35:11.623Z,4.20
2023-03-16T13:37:44.823Z,3.97
2023-03-16T13:40:23.862Z,3.90
2023-03-16T13:42:56.340Z,3.60
2023-03-16T13:45:36.529Z,3.47
2023-03-16T13:48:08.758Z,3.23
2023-03-16T13:50:41.401Z,3.73
2023-03-16T13:53:17.717Z,3.20
2023-03-16T13:55:50.350Z,3.50
2023-03-16T13:58:26.170Z,3.60
2023-03-16T14:01:05.197Z,3.60
2023-03-16T14:03:37.096Z,3.83
2023-03-16T14:06:08.103Z,3.67
2023-03-16T14:08:38.266Z,3.50
2023-03-16T14:11:08.188Z,3.43
2023-03-16T14:13:39.662Z,3.50
2023-03-16T14:16:20.043Z,3.87
2023-03-16T14:18:51.791Z,3.30
2023-03-16T14:21:25.913Z,3.80
2023-03-16T14:23:57.999Z,3.43
2023-03-16T14:26:28.001Z,3.53
2023-03-16T14:29:01.362Z,3.80
2023-03-16T14:31:41.570Z,3.33
2023-03-16T14:34:25.482Z,3.93
2023-03-16T14:36:55.425Z,3.47
2023-03-16T14:39:30.686Z,3.30
2023-03-16T14:42:00.902Z,3.40
2023-03-16T14:44:35.576Z,3.50
2023-03-16T14:47:09.224Z,3.60
2023-03-16T14:49:43.220Z,3.40
2023-03-16T14:52:24.942Z,3.40
2023-03-16T14:54:55.460Z,3.33
2023-03-16T14:57:26.061Z,2.93
2023-03-16T14:59:56.231Z,3.60
2023-03-16T15:02:32.784Z,3.60
2023-03-16T15:05:03.844Z,3.37
2023-03-16T15:07:37.541Z,3.77
2023-03-16T15:10:13.448Z,3.70
2023-03-16T15:12:50.422Z,3.50
2023-03-16T15:15:23.051Z,3.47
2023-03-16T15:17:56.622Z,3.30
2023-03-16T15:20:31.970Z,3.23
2023-03-16T15:23:03.377Z,3.57
2023-03-16T15:25:38.712Z,3.60
2023-03-16T15:28:15.948Z,3.47
2023-03-16T15:30:46.820Z,3.17
2023-03-16T15:33:19.361Z,3.60
2023-03-16T15:35:53.049Z,3.43
2023-03-16T15:38:26.795Z,3.73
2023-03-16T15:40:58.505Z,3.43
2023-03-16T15:43:30.048Z,3.70
2023-03-16T15:46:01.649Z,3.20
2023-03-16T15:48:34.118Z,3.57
2023-03-16T15:51:07.778Z,3.63
2023-03-16T15:53:41.509Z,3.30
2023-03-16T15:56:15.038Z,5.50
2023-03-16T15:58:46.878Z,3.67
2023-03-16T16:01:25.560Z,3.63
2023-03-16T16:03:59.345Z,3.47
2023-03-16T16:06:30.550Z,3.60
2023-03-16T16:09:00.369Z,3.60
2023-03-16T16:11:31.297Z,3.47
2023-03-16T16:14:02.253Z,3.57
2023-03-16T16:16:33.900Z,3.13
2023-03-16T16:19:06.422Z,3.37
2023-03-16T16:21:36.484Z,3.57
2023-03-16T16:24:06.532Z,3.10
2023-03-16T16:26:52.174Z,3.77
2023-03-16T16:29:36.198Z,4.07
2023-03-16T16:32:06.160Z,3.50
2023-03-16T16:34:38.573Z,3.20
2023-03-16T16:37:08.305Z,3.67
2023-03-16T16:39:38.131Z,3.70
2023-03-16T16:42:08.417Z,3.50
2023-03-16T16:44:38.259Z,3.60
2023-03-16T16:47:16.926Z,3.67
2023-03-16T16:49:49.650Z,3.27
2023-03-16T16:52:20.439Z,3.20
2023-03-16T16:54:50.204Z,3.13
2023-03-16T16:57:22.533Z,3.33
2023-03-16T16:59:53.188Z,3.37
2023-03-16T17:02:29.889Z,3.23
2023-03-16T17:05:02.374Z,3.20
2023-03-16T17:07:32.364Z,3.35
2023-03-16T17:10:05.548Z,3.10
2023-03-16T17:12:35.868Z,3.27
2023-03-16T17:15:06.005Z,3.33
2023-03-16T17:17:35.789Z,2.93
2023-03-16T17:20:16.861Z,3.50
2023-03-16T17:22:50.888Z,3.03
2023-03-16T17:25:20.817Z,3.30
2023-03-16T17:27:53.578Z,3.17
2023-03-16T17:30:29.866Z,3.47
2023-03-16T17:33:06.584Z,2.90
2023-03-16T17:35:45.134Z,3.23
2023-03-16T17:38:24.322Z,3.30
2023-03-16T17:40:58.520Z,3.10
2023-03-16T17:43:28.350Z,3.57
2023-03-16T17:45:58.313Z,3.20
2023-03-16T17:48:28.451Z,2.87
2023-03-16T17:51:00.881Z,3.03
2023-03-16T17:53:30.660Z,3.13
2023-03-16T17:56:00.522Z,2.97
2023-03-16T17:58:32.660Z,3.13
2023-03-16T18:01:03.280Z,3.00
2023-03-16T18:03:33.107Z,3.13
2023-03-16T18:06:05.606Z,3.13
2023-03-16T18:08:36.936Z,3.00
2023-03-16T18:11:10.934Z,3.40
2023-03-16T18:13:42.694Z,3.53
2023-03-16T18:16:20.066Z,3.17
2023-03-16T18:18:49.940Z,2.70
2023-03-16T18:21:25.912Z,2.90
2023-03-16T18:23:57.093Z,3.03
2023-03-16T18:26:27.744Z,3.17
2023-03-16T18:28:58.106Z,2.70
2023-03-16T18:31:31.109Z,2.90
2023-03-16T18:34:06.758Z,2.93
2023-03-16T18:36:41.491Z,3.20
2023-03-16T18:39:21.989Z,3.70
2023-03-16T18:41:52.379Z,3.27
2023-03-16T18:44:24.316Z,4.10
2023-03-16T18:46:57.641Z,3.00
2023-03-16T18:49:32.648Z,3.17
2023-03-16T18:52:05.251Z,3.77
2023-03-16T18:54:36.989Z,3.77
2023-03-16T18:57:20.696Z,3.40
2023-03-16T18:59:50.913Z,3.37
2023-03-16T19:02:31.343Z,3.20
2023-03-16T19:05:04.711Z,3.93
2023-03-16T19:07:39.595Z,3.50
2023-03-16T19:10:20.842Z,3.93
2023-03-16T19:12:50.578Z,3.47
2023-03-16T19:15:23.022Z,3.70
2023-03-16T19:17:56.097Z,3.77
2023-03-16T19:20:29.106Z,3.43
2023-03-16T19:23:06.039Z,3.50
2023-03-16T19:25:39.207Z,3.80
2023-03-16T19:28:14.850Z,3.93
2023-03-16T19:30:46.784Z,3.57
2023-03-16T19:33:23.533Z,4.03
2023-03-16T19:35:53.986Z,3.57
2023-03-16T19:38:28.030Z,4.07
2023-03-16T19:41:07.182Z,3.60
2023-03-16T19:54:48.627Z,3.50
2023-03-16T19:57:24.522Z,3.90
2023-03-16T19:59:58.596Z,3.13
2023-03-16T20:02:30.509Z,4.00
2023-03-16T20:05:01.855Z,3.60
2023-03-16T20:07:37.934Z,3.40
2023-03-16T20:10:12.149Z,3.57
2023-03-16T20:12:44.594Z,3.00
2023-03-16T20:15:21.600Z,3.93
2023-03-16T20:17:52.981Z,3.50
2023-03-16T20:20:28.262Z,3.83
2023-03-16T20:22:59.933Z,3.10
2023-03-16T20:25:38.427Z,3.50
2023-03-16T20:28:34.267Z,3.70
2023-03-16T20:31:04.370Z,3.67
2023-03-16T20:33:35.155Z,3.43
2023-03-16T20:36:05.173Z,3.40
2023-03-16T20:38:35.844Z,3.17
2023-03-16T20:41:22.358Z,3.30
2023-03-16T20:43:52.553Z,3.23
2023-03-16T20:47:24.815Z,4.73
2023-03-16T20:49:57.527Z,2.97
2023-03-16T20:52:30.994Z,3.40
2023-03-16T20:55:02.821Z,2.70
2023-03-16T20:57:36.479Z,3.17
2023-03-16T21:00:15.734Z,3.37
2023-03-16T21:02:45.926Z,2.70
2023-03-16T21:05:16.996Z,3.23
2023-03-16T21:07:46.852Z,3.20
2023-03-16T21:10:20.778Z,3.40
2023-03-16T21:12:57.641Z,3.00
2023-03-16T21:15:29.651Z,2.80
2023-03-16T21:18:01.870Z,3.00
2023-03-16T21:20:34.367Z,3.37
2023-03-16T21:23:04.389Z,3.23
2023-03-16T21:25:37.491Z,3.30
2023-03-16T21:28:10.438Z,3.10
2023-03-16T21:30:46.030Z,3.30
2023-03-16T21:33:22.561Z,3.17
2023-03-16T21:35:52.402Z,3.10
2023-03-16T21:38:24.467Z,3.33
2023-03-16T21:40:54.689Z,3.13
2023-03-16T21:43:27.601Z,3.20
2023-03-16T21:45:58.966Z,3.27
2023-03-16T21:48:34.552Z,3.40
2023-03-16T21:51:04.365Z,3.13
2023-03-16T21:53:35.140Z,3.03
2023-03-16T21:56:05.300Z,3.10
2023-03-16T21:58:38.448Z,3.30
2023-03-16T22:01:08.638Z,3.30
2023-03-16T22:03:50.947Z,2.90
2023-03-16T22:06:21.351Z,3.10
2023-03-16T22:08:52.467Z,3.27
2023-03-16T22:11:23.943Z,3.23
2023-03-16T22:13:57.295Z,4.27
2023-03-16T22:16:30.101Z,3.27
2023-03-16T22:19:00.844Z,3.10
2023-03-16T22:21:35.263Z,3.37
2023-03-16T22:24:07.591Z,3.70
2023-03-16T22:26:37.519Z,2.93
2023-03-16T22:29:23.453Z,3.10
2023-03-16T22:31:56.511Z,3.20
2023-03-16T22:34:32.847Z,2.90
2023-03-16T22:37:07.521Z,3.27
2023-03-16T22:39:39.793Z,3.17
2023-03-16T22:42:27.861Z,3.40
2023-03-16T22:45:00.960Z,3.10
2023-03-16T22:47:34.228Z,3.53
2023-03-16T22:50:04.015Z,3.00
2023-03-16T22:52:38.203Z,4.00
2023-03-16T22:55:11.327Z,3.47
2023-03-16T22:57:41.142Z,3.50
2023-03-16T23:00:20.995Z,3.80
2023-03-16T23:02:51.607Z,3.53
2023-03-16T23:05:24.682Z,3.40
2023-03-16T23:07:55.165Z,4.03
2023-03-16T23:10:28.499Z,3.70
2023-03-16T23:12:59.555Z,3.40
2023-03-16T23:15:33.587Z,3.70
2023-03-16T23:18:03.341Z,3.70
2023-03-16T23:20:34.510Z,3.50
2023-03-16T23:23:04.288Z,3.50
2023-03-16T23:25:34.145Z,3.57
2023-03-16T23:28:05.027Z,3.70
2023-03-16T23:30:37.990Z,3.77
2023-03-16T23:33:08.168Z,3.53
2023-03-16T23:35:38.039Z,4.00
2023-03-16T23:38:08.265Z,3.57
2023-03-16T23:40:40.871Z,4.50
2023-03-16T23:43:11.470Z,4.00
2023-03-16T23:45:45.361Z,4.43
2023-03-16T23:48:19.689Z,3.90
2023-03-16T23:50:52.197Z,3.50
2023-03-16T23:53:22.849Z,4.10
2023-03-16T23:55:54.283Z,4.17
2023-03-16T23:58:24.062Z,4.07
